Trig Lind — WC8177 — position and weather

sailwx.info

Track history (hours):
 
Tides and Currents Weather Stations Pressure Air Temp Water Temp Dewpoint Dewpoint Depression Visibility Wind Speed Wind Dir Waves Ship Positions

Trig Lind

Owner: JERICO PRODUCTS INC, PETALUMA, CA. More information available from US FCC via Universal Licensing System and Coast Guard Vessel Documentation Center.

Last reported at 2017-Dec-04 10:05 UTC. Time now 2017-Dec-12 19:53 UTC.
Position N 38°03' W 121°54'.
Warning: this ship's position is 8 days out of date.

Length 22 m; draft 1.8 m.

Type: Tug. MMSI: 366508420.

Date/timePositionNaut miles runAvg speedWind from/ knotsBaromVisibWave heightAir tempDewpointWater temp
2017-Dec-04 10:05N 38°03' W 121°54'11 8.3
2017-Dec-04 08:47N 38°02' W 122°08'2 8.5
2017-Dec-04 08:30N 38°03' W 122°11'4 7.6
2017-Dec-04 08:00N 38°05' W 122°15'1 2.2
2017-Dec-04 07:29N 38°06' W 122°16'  
2017-Nov-29 10:55N 38°06' W 122°16'0 0.0
2017-Nov-29 10:30N 38°06' W 122°16'0 0.0
2017-Nov-29 10:01N 38°06' W 122°16'0 0.0
2017-Nov-29 09:30N 38°06' W 122°16'0 0.0
2017-Nov-29 09:01N 38°06' W 122°16'0 0.0
2017-Nov-29 08:30N 38°06' W 122°16'0 0.0
2017-Nov-29 08:00N 38°06' W 122°16'0 0.0
2017-Nov-29 07:31N 38°06' W 122°16'0 0.0
2017-Nov-29 07:00N 38°06' W 122°16'0 0.0
2017-Nov-29 06:30N 38°06' W 122°16'0 0.0
2017-Nov-29 06:01N 38°06' W 122°16'0 0.0
2017-Nov-29 05:30N 38°06' W 122°16'0 0.0
2017-Nov-29 05:00N 38°06' W 122°16'0 0.0
2017-Nov-29 04:31N 38°06' W 122°16'0 0.0
2017-Nov-29 04:00N 38°06' W 122°16'0 0.0
2017-Nov-29 03:31N 38°06' W 122°16'0 0.0
2017-Nov-29 03:00N 38°06' W 122°16'0 0.0
2017-Nov-29 02:30N 38°06' W 122°16'0 0.0
2017-Nov-29 02:01N 38°06' W 122°16'0 0.0
2017-Nov-29 01:31N 38°06' W 122°16'0 0.0
2017-Nov-29 01:01N 38°06' W 122°16'0 0.0
2017-Nov-29 00:30N 38°06' W 122°16'0 0.0
2017-Nov-29 00:00N 38°06' W 122°16'0 0.0
2017-Nov-28 23:30N 38°06' W 122°16'0 0.0
2017-Nov-28 23:00N 38°06' W 122°16'0 0.0
2017-Nov-28 22:30N 38°06' W 122°16'0 0.0
2017-Nov-28 22:01N 38°06' W 122°16'0 0.0
2017-Nov-28 21:27N 38°06' W 122°16'0 0.0
2017-Nov-28 21:01N 38°06' W 122°16'0 0.0
2017-Nov-28 20:30N 38°06' W 122°16'0 0.0
2017-Nov-28 20:00N 38°06' W 122°16'0 0.0
2017-Nov-28 19:30N 38°06' W 122°16'0 0.0
2017-Nov-28 19:00N 38°06' W 122°16'0 0.1
2017-Nov-28 18:25N 38°06' W 122°16'2 4.9
2017-Nov-28 18:00N 38°04' W 122°14'0 0.8
2017-Nov-28 17:30N 38°04' W 122°14'0 0.0
2017-Nov-28 16:58N 38°04' W 122°14'0 0.0
2017-Nov-28 16:30N 38°04' W 122°14'0 0.0
2017-Nov-28 16:01N 38°04' W 122°14'0 0.0
2017-Nov-28 15:01N 38°04' W 122°14'0 0.0
2017-Nov-28 14:30N 38°04' W 122°14'0 0.8
2017-Nov-28 14:01N 38°04' W 122°14'1 1.6
2017-Nov-28 13:31N 38°04' W 122°15'1 1.3
2017-Nov-28 13:00N 38°04' W 122°14'2 3.4
2017-Nov-28 12:30N 38°03' W 122°12'2 3.9
2017-Nov-28 12:00N 38°02' W 122°10'8 5.4
2017-Nov-28 10:34N 38°04' W 122°00'3 8.7
2017-Nov-28 10:16N 38°03' W 121°57'2 8.8
2017-Nov-28 10:00N 38°03' W 121°54'11 0.3
2017-Nov-27 03:14N 38°02' W 122°07'2 7.9
2017-Nov-27 03:00N 38°02' W 122°10'4 8.1
2017-Nov-27 02:31N 38°04' W 122°14'2 2.8
2017-Nov-27 01:45N 38°06' W 122°16'0 0.1
2017-Nov-27 01:30N 38°06' W 122°16'0 0.0
2017-Nov-27 01:01N 38°06' W 122°16'  
Track history (hours):
 
Tides and Currents Weather Stations Pressure Air Temp Water Temp Dewpoint Dewpoint Depression Visibility Wind Speed Wind Dir Waves Ship Positions

Trig Lind

Owner: JERICO PRODUCTS INC, PETALUMA, CA. More information available from US FCC via Universal Licensing System and Coast Guard Vessel Documentation Center.

Last reported at 2017-Dec-04 10:05 UTC. Time now 2017-Dec-12 19:53 UTC.
Position N 38°03' W 121°54'.
Warning: this ship's position is 8 days out of date.

Length 22 m; draft 1.8 m.

Type: Tug. MMSI: 366508420.

Date/timePositionNaut miles runAvg speedWind from/ knotsBaromVisibWave heightAir tempDewpointWater temp
2017-Dec-04 10:05N 38°03' W 121°54'11 8.3
2017-Dec-04 08:47N 38°02' W 122°08'2 8.5
2017-Dec-04 08:30N 38°03' W 122°11'4 7.6
2017-Dec-04 08:00N 38°05' W 122°15'1 2.2
2017-Dec-04 07:29N 38°06' W 122°16'  
2017-Nov-29 10:55N 38°06' W 122°16'0 0.0
2017-Nov-29 10:30N 38°06' W 122°16'0 0.0
2017-Nov-29 10:01N 38°06' W 122°16'0 0.0
2017-Nov-29 09:30N 38°06' W 122°16'0 0.0
2017-Nov-29 09:01N 38°06' W 122°16'0 0.0
2017-Nov-29 08:30N 38°06' W 122°16'0 0.0
2017-Nov-29 08:00N 38°06' W 122°16'0 0.0
2017-Nov-29 07:31N 38°06' W 122°16'0 0.0
2017-Nov-29 07:00N 38°06' W 122°16'0 0.0
2017-Nov-29 06:30N 38°06' W 122°16'0 0.0
2017-Nov-29 06:01N 38°06' W 122°16'0 0.0
2017-Nov-29 05:30N 38°06' W 122°16'0 0.0
2017-Nov-29 05:00N 38°06' W 122°16'0 0.0
2017-Nov-29 04:31N 38°06' W 122°16'0 0.0
2017-Nov-29 04:00N 38°06' W 122°16'0 0.0
2017-Nov-29 03:31N 38°06' W 122°16'0 0.0
2017-Nov-29 03:00N 38°06' W 122°16'0 0.0
2017-Nov-29 02:30N 38°06' W 122°16'0 0.0
2017-Nov-29 02:01N 38°06' W 122°16'0 0.0
2017-Nov-29 01:31N 38°06' W 122°16'0 0.0
2017-Nov-29 01:01N 38°06' W 122°16'0 0.0
2017-Nov-29 00:30N 38°06' W 122°16'0 0.0
2017-Nov-29 00:00N 38°06' W 122°16'0 0.0
2017-Nov-28 23:30N 38°06' W 122°16'0 0.0
2017-Nov-28 23:00N 38°06' W 122°16'0 0.0
2017-Nov-28 22:30N 38°06' W 122°16'0 0.0
2017-Nov-28 22:01N 38°06' W 122°16'0 0.0
2017-Nov-28 21:27N 38°06' W 122°16'0 0.0
2017-Nov-28 21:01N 38°06' W 122°16'0 0.0
2017-Nov-28 20:30N 38°06' W 122°16'0 0.0
2017-Nov-28 20:00N 38°06' W 122°16'0 0.0
2017-Nov-28 19:30N 38°06' W 122°16'0 0.0
2017-Nov-28 19:00N 38°06' W 122°16'0 0.1
2017-Nov-28 18:25N 38°06' W 122°16'2 4.9
2017-Nov-28 18:00N 38°04' W 122°14'0 0.8
2017-Nov-28 17:30N 38°04' W 122°14'0 0.0
2017-Nov-28 16:58N 38°04' W 122°14'0 0.0
2017-Nov-28 16:30N 38°04' W 122°14'0 0.0
2017-Nov-28 16:01N 38°04' W 122°14'0 0.0
2017-Nov-28 15:01N 38°04' W 122°14'0 0.0
2017-Nov-28 14:30N 38°04' W 122°14'0 0.8
2017-Nov-28 14:01N 38°04' W 122°14'1 1.6
2017-Nov-28 13:31N 38°04' W 122°15'1 1.3
2017-Nov-28 13:00N 38°04' W 122°14'2 3.4
2017-Nov-28 12:30N 38°03' W 122°12'2 3.9
2017-Nov-28 12:00N 38°02' W 122°10'8 5.4
2017-Nov-28 10:34N 38°04' W 122°00'3 8.7
2017-Nov-28 10:16N 38°03' W 121°57'2 8.8
2017-Nov-28 10:00N 38°03' W 121°54'11 0.3
2017-Nov-27 03:14N 38°02' W 122°07'2 7.9
2017-Nov-27 03:00N 38°02' W 122°10'4 8.1
2017-Nov-27 02:31N 38°04' W 122°14'2 2.8
2017-Nov-27 01:45N 38°06' W 122°16'0 0.1
2017-Nov-27 01:30N 38°06' W 122°16'0 0.0
2017-Nov-27 01:01N 38°06' W 122°16'  

Dump ship's entire track history